Yeager (CRW)

 

Airport Diagram
Current Weather/Forecast (VFR Conditions)
METAR KCRW 290354Z 04003KT 8SM FEW008 SCT050 BKN110 21/19 A2999 RMK AO2 RAE07 SLP148 P0000 T02060189
TAF KCRW 290234Z 2903/2924 16005KT 6SM -SHRA BKN050 FM290400 VRB03KT P6SM BCFG SCT050 BKN150 FM290600 00000KT 6SM BR BKN150 FM290900 00000KT 3SM BR SCT150 FM291400 23008G16KT P6SM SCT040 FM292200 23006G17KT P6SM -SHRA VCTS BKN060CB

Airport Information

All Charts
General
Chart Name View
AIRPORT DIAGRAM
TAKEOFF MINIMUMS
ALTERNATE MINIMUMS

Approaches
Chart Name Download
ILS OR LOC RWY 05
ILS OR LOC RWY 23
RNAV (RNP) Z RWY 05
RNAV (RNP) Z RWY 23
RNAV (GPS) Y RWY 05
RNAV (GPS) Y RWY 23
VOR-A


Airport Statistics
Departures Arrivals Local
All Collected Stats since June 2016: 309 235 17
2020 Stats: 68 57 0
May Stats: 15 17 0

Inbound Traffic (Arrivals) - 0

No inbound traffic.


Outbound Traffic (Departures) - 0

No outbound traffic.


Local Traffic (Pattern) - 0

No local traffic.